Time;durP1;ratioP1;P1;durP2;ratioP2;P2;SDS_P1;SDS_P2;PMS_P1;PMS_P2;Temp;Humidity;BMP_temperature;BMP_pressure;BME280_temperature;BME280_humidity;BME280_pressure;Samples;Min_cycle;Max_cycle;Signal;HPM_P1;HPM_P2
2023/12/10 00:00:08;;;;;;;0.30;0.30;;;8.70;92.50;;;;;;5002788;28;20450;-68
2023/12/10 00:02:33;;;;;;;0.57;0.30;;;8.70;92.50;;;;;;5016118;28;20402;-68
2023/12/10 00:04:59;;;;;;;0.70;0.30;;;8.70;92.50;;;;;;5002493;28;20084;-69
2023/12/10 00:07:25;;;;;;;0.40;0.30;;;8.70;92.60;;;;;;5015235;28;20052;-68
2023/12/10 00:09:51;;;;;;;1.48;0.43;;;8.80;92.60;;;;;;5000969;28;20026;-67
2023/12/10 00:12:16;;;;;;;0.75;0.47;;;8.80;92.60;;;;;;5000729;28;20067;-68
2023/12/10 00:14:42;;;;;;;1.50;0.47;;;8.80;92.60;;;;;;5001631;28;20042;-68
2023/12/10 00:17:08;;;;;;;0.60;0.30;;;8.80;92.60;;;;;;4998110;28;20113;-68
2023/12/10 00:19:34;;;;;;;0.70;0.38;;;8.80;92.60;;;;;;5001798;28;20046;-68
2023/12/10 00:22:00;;;;;;;1.02;0.50;;;8.80;92.60;;;;;;5000849;28;20117;-68
2023/12/10 00:24:25;;;;;;;0.20;0.20;;;8.80;92.50;;;;;;5001199;28;20038;-67
2023/12/10 00:26:51;;;;;;;0.85;0.20;;;8.80;92.50;;;;;;5001150;28;20049;-68
2023/12/10 00:29:17;;;;;;;2.38;0.22;;;8.80;92.50;;;;;;5001235;28;20638;-68
2023/12/10 00:31:43;;;;;;;1.08;0.30;;;8.80;92.50;;;;;;5000359;28;20041;-68
2023/12/10 00:34:09;;;;;;;0.65;0.30;;;8.80;92.40;;;;;;5001267;28;20030;-68
2023/12/10 00:36:35;;;;;;;0.68;0.20;;;8.80;92.40;;;;;;4999696;28;20536;-68
2023/12/10 00:39:04;;;;;;;1.38;0.30;;;8.90;92.40;;;;;;5001365;28;20084;-68
2023/12/10 00:41:33;;;;;;;1.15;0.40;;;8.80;92.30;;;;;;5000649;28;20038;-66
2023/12/10 00:43:59;;;;;;;1.52;0.30;;;8.90;92.30;;;;;;5000776;28;20035;-68
2023/12/10 00:46:24;;;;;;;0.88;0.30;;;8.90;92.30;;;;;;5000328;28;20034;-67
2023/12/10 00:48:50;;;;;;;0.85;0.40;;;8.80;92.20;;;;;;5001208;28;20053;-68
2023/12/10 00:51:19;;;;;;;1.83;0.32;;;8.80;92.10;;;;;;5000274;28;20038;-68
2023/12/10 00:53:45;;;;;;;1.55;0.40;;;8.90;92.10;;;;;;4999499;28;20117;-68
2023/12/10 00:56:11;;;;;;;0.80;0.30;;;8.80;92.10;;;;;;5000705;28;20041;-68
2023/12/10 00:58:37;;;;;;;2.17;0.50;;;8.80;92.10;;;;;;4999164;28;20042;-68
2023/12/10 01:01:02;;;;;;;2.10;0.40;;;8.80;92.00;;;;;;5000525;28;20034;-68
2023/12/10 01:03:28;;;;;;;2.35;0.30;;;8.90;92.00;;;;;;5000888;28;20053;-68
2023/12/10 01:05:54;;;;;;;2.95;0.47;;;8.80;92.00;;;;;;4999759;28;20062;-68
2023/12/10 01:08:19;;;;;;;1.13;0.50;;;8.80;91.90;;;;;;5001150;28;20045;-68
2023/12/10 01:10:45;;;;;;;1.67;0.38;;;8.80;91.90;;;;;;5015349;28;20042;-68
2023/12/10 01:13:10;;;;;;;2.20;0.60;;;8.80;91.80;;;;;;5000886;28;20585;-68
2023/12/10 01:15:39;;;;;;;3.75;0.52;;;8.80;91.70;;;;;;4999702;28;20034;-68
2023/12/10 01:18:05;;;;;;;4.22;0.70;;;8.80;91.50;;;;;;4999424;28;20087;-68
2023/12/10 01:20:33;;;;;;;4.75;1.00;;;8.80;91.60;;;;;;4998391;28;20513;-68
2023/12/10 01:22:59;;;;;;;1.88;0.60;;;8.80;91.50;;;;;;4999910;28;20042;-68
2023/12/10 01:25:25;;;;;;;3.38;0.50;;;8.80;91.50;;;;;;4999495;28;20026;-68
2023/12/10 01:27:52;;;;;;;4.13;0.50;;;8.80;91.50;;;;;;4999741;28;20061;-67
2023/12/10 01:30:24;;;;;;;4.35;0.70;;;8.80;91.40;;;;;;4998773;28;20056;-67
2023/12/10 01:32:51;;;;;;;1.90;0.50;;;8.80;91.40;;;;;;4998430;28;20046;-67
2023/12/10 01:35:17;;;;;;;3.38;0.98;;;8.70;91.40;;;;;;5000390;28;20539;-67
2023/12/10 01:37:43;;;;;;;5.68;1.10;;;8.70;91.40;;;;;;4998734;28;20124;-67
2023/12/10 01:40:09;;;;;;;4.15;0.80;;;8.70;91.40;;;;;;4999115;28;20034;-67
2023/12/10 01:42:35;;;;;;;6.60;1.23;;;8.70;91.40;;;;;;4998676;28;20030;-68
2023/12/10 01:45:03;;;;;;;5.88;1.10;;;8.70;91.30;;;;;;4999943;28;20030;-68
2023/12/10 01:47:33;;;;;;;3.60;0.90;;;8.70;91.30;;;;;;4998793;28;20058;-68
2023/12/10 01:50:00;;;;;;;3.40;0.90;;;8.70;91.20;;;;;;5012284;28;20029;-68
2023/12/10 01:52:26;;;;;;;3.10;0.88;;;8.70;91.20;;;;;;4998412;28;20651;-68
2023/12/10 01:54:51;;;;;;;3.55;0.75;;;8.60;91.10;;;;;;4998472;28;20038;-67
2023/12/10 01:57:17;;;;;;;5.13;0.80;;;8.60;91.10;;;;;;4999449;28;20029;-67
2023/12/10 01:59:44;;;;;;;4.53;0.82;;;8.60;91.00;;;;;;4999611;28;20085;-68
2023/12/10 02:02:12;;;;;;;3.78;0.98;;;8.60;91.00;;;;;;5002657;28;20050;-68
2023/12/10 02:04:39;;;;;;;3.65;0.70;;;8.60;91.00;;;;;;4999290;28;20322;-68
2023/12/10 02:07:05;;;;;;;5.32;0.90;;;8.50;91.00;;;;;;4999026;28;20362;-67
2023/12/10 02:09:30;;;;;;;3.00;0.50;;;8.50;91.00;;;;;;4998851;28;20143;-67
2023/12/10 02:11:56;;;;;;;2.97;0.50;;;8.50;90.90;;;;;;5000654;28;20034;-68
2023/12/10 02:14:22;;;;;;;3.60;0.60;;;8.50;91.00;;;;;;4997911;28;20046;-68
2023/12/10 02:16:48;;;;;;;4.03;0.70;;;8.50;91.00;;;;;;4998227;28;20085;-68
2023/12/10 02:19:13;;;;;;;8.93;1.20;;;8.30;90.90;;;;;;4998727;28;20065;-67
2023/12/10 02:21:44;;;;;;;7.00;1.08;;;8.40;90.90;;;;;;4997882;28;20032;-67
2023/12/10 02:24:11;;;;;;;5.85;0.75;;;8.40;90.90;;;;;;4998790;28;20092;-68
2023/12/10 02:26:37;;;;;;;4.70;0.80;;;8.40;90.90;;;;;;4998268;28;20417;-67
2023/12/10 02:29:04;;;;;;;9.02;0.88;;;8.40;91.00;;;;;;4998780;28;20048;-67
2023/12/10 02:31:30;;;;;;;3.60;0.63;;;8.40;90.90;;;;;;4998485;28;20038;-67
2023/12/10 02:33:56;;;;;;;5.07;0.90;;;8.30;90.90;;;;;;4998723;28;20042;-67
2023/12/10 02:36:21;;;;;;;7.35;0.88;;;8.30;90.80;;;;;;4999226;28;20053;-68
2023/12/10 02:38:49;;;;;;;5.20;0.68;;;8.30;90.80;;;;;;4997400;28;20042;-67
2023/12/10 02:41:15;;;;;;;6.75;1.05;;;8.30;90.80;;;;;;4998452;28;20420;-67
2023/12/10 02:43:40;;;;;;;4.18;0.80;;;8.30;90.80;;;;;;4998534;28;20037;-67
2023/12/10 02:46:06;;;;;;;7.93;1.45;;;8.30;90.80;;;;;;4999778;28;20034;-67
2023/12/10 02:48:35;;;;;;;4.70;0.90;;;8.30;90.80;;;;;;4997975;28;20113;-67
2023/12/10 02:51:01;;;;;;;5.00;0.85;;;8.20;90.80;;;;;;4998278;28;20030;-67
2023/12/10 02:53:26;;;;;;;6.18;0.95;;;8.20;90.80;;;;;;4998360;28;20032;-67
2023/12/10 02:55:52;;;;;;;3.97;1.02;;;8.20;90.80;;;;;;4998537;28;20034;-67
2023/12/10 02:58:17;;;;;;;6.60;1.27;;;8.20;90.80;;;;;;4999796;28;20128;-67
2023/12/10 03:00:43;;;;;;;5.05;1.00;;;8.20;90.90;;;;;;4997680;28;20041;-67
2023/12/10 03:03:09;;;;;;;3.08;0.77;;;8.20;90.90;;;;;;4998399;28;20034;-67
2023/12/10 03:05:35;;;;;;;6.80;0.98;;;8.20;90.90;;;;;;4998412;28;20034;-67
2023/12/10 03:08:00;;;;;;;8.35;1.23;;;8.20;90.90;;;;;;4999229;28;20110;-67
2023/12/10 03:10:26;;;;;;;7.47;1.63;;;8.20;90.90;;;;;;4999878;28;20062;-67
2023/12/10 03:12:51;;;;;;;9.65;1.23;;;8.20;90.90;;;;;;4997865;28;20117;-67
2023/12/10 03:15:17;;;;;;;9.63;1.48;;;8.20;90.90;;;;;;5001688;28;20112;-67
2023/12/10 03:17:43;;;;;;;5.45;1.10;;;8.20;90.90;;;;;;5001407;28;20060;-67
2023/12/10 03:20:09;;;;;;;4.57;0.93;;;8.20;90.80;;;;;;5001622;28;20109;-67
2023/12/10 03:22:35;;;;;;;8.57;1.00;;;8.20;90.50;;;;;;5001642;28;20186;-67
2023/12/10 03:25:01;;;;;;;9.13;1.10;;;8.20;90.30;;;;;;5002870;28;20057;-67
2023/12/10 03:27:26;;;;;;;4.53;0.90;;;8.20;90.40;;;;;;5002063;28;20498;-67
2023/12/10 03:29:52;;;;;;;9.10;1.05;;;8.20;90.40;;;;;;5001755;28;20034;-67
2023/12/10 03:32:18;;;;;;;8.30;1.08;;;8.20;90.40;;;;;;5001452;28;20418;-67
2023/12/10 03:34:43;;;;;;;10.82;1.50;;;8.20;90.50;;;;;;5001075;28;20104;-67
2023/12/10 03:37:09;;;;;;;6.95;1.25;;;8.10;90.50;;;;;;5001498;28;20105;-67
2023/12/10 03:39:34;;;;;;;9.68;1.50;;;8.10;90.60;;;;;;5001618;28;20043;-67
2023/12/10 03:42:00;;;;;;;7.03;1.58;;;8.10;90.60;;;;;;5002136;28;20034;-67
2023/12/10 03:44:26;;;;;;;10.10;1.50;;;8.10;90.70;;;;;;5001768;28;20026;-67
2023/12/10 03:46:51;;;;;;;11.00;1.50;;;8.10;90.80;;;;;;5001461;28;20042;-67
2023/12/10 03:49:17;;;;;;;9.80;1.65;;;8.10;90.80;;;;;;5002136;28;20413;-67
2023/12/10 03:51:43;;;;;;;7.97;1.52;;;8.10;90.80;;;;;;5001065;28;20513;-67
2023/12/10 03:54:08;;;;;;;7.50;1.58;;;8.10;90.90;;;;;;5002524;28;20041;-66
2023/12/10 03:56:34;;;;;;;15.55;2.03;;;8.10;90.80;;;;;;5001408;28;20045;-67
2023/12/10 03:58:59;;;;;;;9.48;1.40;;;8.10;90.80;;;;;;5017147;28;20042;-66
2023/12/10 04:01:25;;;;;;;11.45;2.40;;;8.00;90.80;;;;;;5001627;28;20042;-67
2023/12/10 04:03:51;;;;;;;11.18;1.58;;;8.10;90.80;;;;;;5001327;28;20034;-67
2023/12/10 04:06:16;;;;;;;11.88;1.73;;;8.00;90.80;;;;;;5001958;28;20222;-67
2023/12/10 04:08:45;;;;;;;10.40;2.10;;;8.00;90.80;;;;;;5001931;28;20462;-66
2023/12/10 04:11:10;;;;;;;14.45;2.05;;;8.00;90.70;;;;;;5003548;28;20068;-66
2023/12/10 04:13:36;;;;;;;16.60;2.25;;;8.00;90.70;;;;;;5001388;28;20030;-67
2023/12/10 04:16:01;;;;;;;10.75;1.88;;;8.10;90.80;;;;;;5000931;28;20034;-66
2023/12/10 04:18:27;;;;;;;10.32;1.70;;;8.00;90.80;;;;;;5000515;28;20401;-67
2023/12/10 04:20:53;;;;;;;8.63;1.83;;;8.10;90.80;;;;;;5000144;28;20061;-67
2023/12/10 04:23:18;;;;;;;13.68;2.00;;;8.00;90.70;;;;;;5000956;28;20049;-66
2023/12/10 04:25:44;;;;;;;14.80;2.40;;;8.00;90.70;;;;;;4999472;28;20551;-67
2023/12/10 04:28:10;;;;;;;13.70;2.00;;;8.00;90.60;;;;;;5001235;28;20033;-67
2023/12/10 04:30:36;;;;;;;15.45;2.25;;;8.00;90.60;;;;;;5000082;28;20038;-67
2023/12/10 04:33:04;;;;;;;16.83;2.28;;;8.00;90.60;;;;;;5000684;28;20045;-67
2023/12/10 04:35:29;;;;;;;17.33;2.38;;;8.00;90.60;;;;;;5015911;28;20034;-66
2023/12/10 04:37:55;;;;;;;14.07;2.00;;;8.00;90.60;;;;;;5000579;28;20045;-67
2023/12/10 04:40:21;;;;;;;14.52;1.98;;;8.00;90.60;;;;;;4999844;28;20293;-67
2023/12/10 04:42:47;;;;;;;12.73;1.95;;;8.00;90.50;;;;;;5000295;28;20034;-67
2023/12/10 04:45:13;;;;;;;15.32;2.80;;;8.00;90.40;;;;;;5000716;28;20115;-67
2023/12/10 04:47:38;;;;;;;9.73;1.88;;;8.10;90.40;;;;;;5000318;28;20409;-67
2023/12/10 04:50:04;;;;;;;10.95;2.25;;;8.00;90.40;;;;;;5000166;28;20523;-67
2023/12/10 04:52:30;;;;;;;11.60;1.98;;;8.00;90.40;;;;;;4999646;28;20651;-66
2023/12/10 04:54:58;;;;;;;11.70;2.28;;;8.00;90.40;;;;;;4999745;28;20084;-67
2023/12/10 04:57:25;;;;;;;12.07;2.10;;;8.00;90.40;;;;;;4999719;28;20087;-67
2023/12/10 04:59:50;;;;;;;11.32;1.90;;;7.90;90.40;;;;;;4999782;28;20580;-67
2023/12/10 05:02:16;;;;;;;11.63;2.03;;;8.00;90.40;;;;;;5000419;28;20125;-67
2023/12/10 05:04:41;;;;;;;13.27;1.95;;;7.90;90.40;;;;;;4999599;28;20033;-66
2023/12/10 05:07:08;;;;;;;14.38;1.83;;;7.90;90.30;;;;;;5000427;28;20397;-67
2023/12/10 05:09:33;;;;;;;13.50;2.03;;;7.90;90.30;;;;;;4999981;28;20046;-67
2023/12/10 05:11:59;;;;;;;15.32;2.83;;;7.90;90.30;;;;;;5001501;28;20097;-67
2023/12/10 05:14:25;;;;;;;10.43;2.20;;;7.90;90.30;;;;;;5000524;28;20038;-67
2023/12/10 05:16:50;;;;;;;12.60;2.28;;;7.90;90.30;;;;;;5000518;28;20517;-67
2023/12/10 05:19:16;;;;;;;15.38;2.42;;;7.90;90.30;;;;;;4999707;28;20041;-67
2023/12/10 05:21:42;;;;;;;15.25;2.40;;;7.90;90.40;;;;;;4999634;28;20506;-66
2023/12/10 05:24:08;;;;;;;12.48;2.13;;;7.90;90.40;;;;;;4999889;28;20505;-66
2023/12/10 05:26:33;;;;;;;13.48;2.10;;;7.90;90.40;;;;;;4998943;28;20099;-66
2023/12/10 05:28:59;;;;;;;12.73;2.00;;;7.90;90.40;;;;;;4999489;28;20604;-66
2023/12/10 05:31:25;;;;;;;15.00;2.20;;;7.90;90.40;;;;;;4998157;28;20077;-66
2023/12/10 05:33:50;;;;;;;16.27;2.13;;;7.90;90.40;;;;;;4999192;28;20387;-66
2023/12/10 05:36:16;;;;;;;14.60;2.63;;;7.90;90.40;;;;;;5000075;28;20062;-67
2023/12/10 05:38:42;;;;;;;10.60;2.58;;;7.90;90.40;;;;;;4997463;28;20535;-66
2023/12/10 05:41:07;;;;;;;12.20;3.15;;;7.80;90.40;;;;;;4999488;28;20534;-67
2023/12/10 05:43:33;;;;;;;13.57;2.35;;;7.80;90.30;;;;;;4999637;28;20034;-67
2023/12/10 05:45:59;;;;;;;13.85;2.10;;;7.80;90.30;;;;;;5000524;28;20053;-66
2023/12/10 05:48:27;;;;;;;12.55;2.08;;;7.80;90.30;;;;;;4999281;28;20223;-67
2023/12/10 05:50:55;;;;;;;13.45;2.15;;;7.80;90.30;;;;;;4998102;28;20297;-66
2023/12/10 05:53:21;;;;;;;15.48;1.92;;;7.70;90.30;;;;;;4999549;28;20026;-66
2023/12/10 05:55:46;;;;;;;14.07;2.25;;;7.80;90.30;;;;;;4998996;28;20402;-66
2023/12/10 05:58:13;;;;;;;13.95;2.00;;;7.70;90.30;;;;;;4999180;28;20050;-67
2023/12/10 06:00:39;;;;;;;14.45;2.10;;;7.70;90.30;;;;;;4998524;28;20033;-66
2023/12/10 06:03:04;;;;;;;11.82;2.00;;;7.70;90.30;;;;;;4999504;28;20034;-67
2023/12/10 06:05:30;;;;;;;17.10;2.30;;;7.70;90.30;;;;;;4999853;28;20030;-67
2023/12/10 06:07:55;;;;;;;9.60;1.40;;;7.70;90.20;;;;;;4998792;28;20038;-66
2023/12/10 06:10:21;;;;;;;17.60;2.03;;;7.70;90.30;;;;;;5000239;28;20297;-65
2023/12/10 06:12:47;;;;;;;13.25;2.25;;;7.70;90.20;;;;;;4998992;28;20038;-67
2023/12/10 06:15:12;;;;;;;12.65;1.95;;;7.70;90.20;;;;;;5000739;28;20030;-66
2023/12/10 06:17:38;;;;;;;13.32;2.20;;;7.60;90.20;;;;;;4999950;28;20041;-67
2023/12/10 06:20:05;;;;;;;16.13;2.45;;;7.60;90.10;;;;;;4999151;28;20501;-66
2023/12/10 06:22:30;;;;;;;12.80;2.03;;;7.60;90.50;;;;;;4998804;28;20088;-66
2023/12/10 06:24:56;;;;;;;18.50;2.85;;;7.60;90.10;;;;;;4999340;28;20046;-67
2023/12/10 06:27:22;;;;;;;10.90;1.73;;;7.60;90.10;;;;;;4998337;28;20033;-66
2023/12/10 06:29:47;;;;;;;14.10;1.95;;;7.60;90.10;;;;;;4997603;28;20129;-66
2023/12/10 06:32:13;;;;;;;10.95;1.95;;;7.60;90.10;;;;;;4995009;28;20572;-67
2023/12/10 06:34:39;;;;;;;13.93;2.03;;;7.60;90.00;;;;;;4997085;28;20034;-66
2023/12/10 06:37:04;;;;;;;11.85;1.98;;;7.60;90.10;;;;;;4997816;28;20398;-66
2023/12/10 06:39:30;;;;;;;8.82;1.50;;;7.60;90.00;;;;;;4997748;28;20048;-66
2023/12/10 06:41:55;;;;;;;12.65;2.08;;;7.50;90.00;;;;;;4998162;28;20034;-67
2023/12/10 06:44:21;;;;;;;12.30;2.00;;;7.50;90.00;;;;;;4998775;28;20038;-67
2023/12/10 06:46:51;;;;;;;12.43;1.77;;;7.50;90.00;;;;;;4998192;28;20112;-66
2023/12/10 06:49:17;;;;;;;9.27;1.77;;;7.50;89.90;;;;;;4998065;28;20054;-67
2023/12/10 06:51:43;;;;;;;9.90;1.70;;;7.50;90.00;;;;;;4997189;28;20572;-66
2023/12/10 06:54:10;;;;;;;12.63;1.90;;;7.40;90.00;;;;;;4998648;28;20030;-66
2023/12/10 06:56:40;;;;;;;12.85;2.22;;;7.50;90.00;;;;;;4998245;28;20122;-66
2023/12/10 06:59:07;;;;;;;11.27;1.90;;;7.40;90.00;;;;;;5000220;28;20061;-67
2023/12/10 07:01:39;;;;;;;12.05;2.15;;;7.40;90.00;;;;;;4997464;28;20049;-66
2023/12/10 07:04:06;;;;;;;10.82;1.73;;;7.40;90.00;;;;;;4998668;28;20038;-66
2023/12/10 07:06:32;;;;;;;10.95;1.50;;;7.30;90.00;;;;;;4997479;28;20405;-66
2023/12/10 07:08:58;;;;;;;14.70;2.00;;;7.40;90.00;;;;;;4997678;28;20031;-66
2023/12/10 07:11:23;;;;;;;10.57;1.52;;;7.40;90.00;;;;;;4998586;28;20100;-66
2023/12/10 07:13:49;;;;;;;9.98;1.70;;;7.40;90.00;;;;;;4998213;28;20529;-66
2023/12/10 07:16:15;;;;;;;13.18;2.30;;;7.40;90.00;;;;;;4998431;28;20037;-67
2023/12/10 07:18:41;;;;;;;9.93;1.77;;;7.40;90.00;;;;;;4997589;28;20044;-67
2023/12/10 07:21:06;;;;;;;13.75;2.38;;;7.40;90.00;;;;;;4998767;28;20037;-66
2023/12/10 07:23:36;;;;;;;10.77;1.90;;;7.40;90.00;;;;;;4998108;28;20441;-66
2023/12/10 07:26:02;;;;;;;12.00;1.65;;;7.40;90.00;;;;;;4999160;28;20545;-66
2023/12/10 07:28:27;;;;;;;13.50;1.92;;;7.40;90.00;;;;;;4992043;28;20038;-66
2023/12/10 07:30:53;;;;;;;10.80;2.10;;;7.40;90.00;;;;;;4995538;28;20050;-66
2023/12/10 07:33:18;;;;;;;15.25;2.00;;;7.40;90.00;;;;;;4992095;28;20040;-66
2023/12/10 07:35:44;;;;;;;10.52;2.03;;;7.40;90.00;;;;;;4988357;28;20648;-67
2023/12/10 07:38:10;;;;;;;15.55;2.45;;;7.40;90.00;;;;;;4994024;28;20177;-67
2023/12/10 07:40:39;;;;;;;11.07;1.90;;;7.40;90.00;;;;;;4997052;28;20056;-67
2023/12/10 07:43:05;;;;;;;15.85;2.08;;;7.50;90.00;;;;;;4994191;28;20034;-66
2023/12/10 07:45:31;;;;;;;9.93;1.75;;;7.50;90.00;;;;;;4997801;28;20081;-66
2023/12/10 07:47:57;;;;;;;10.60;1.83;;;7.50;89.90;;;;;;5000146;28;20046;-65
2023/12/10 07:50:22;;;;;;;8.70;1.58;;;7.50;89.70;;;;;;4997392;28;20058;-66
2023/12/10 07:52:51;;;;;;;10.73;2.17;;;7.50;89.70;;;;;;4998154;28;20192;-66
2023/12/10 07:55:16;;;;;;;13.25;2.30;;;7.60;89.70;;;;;;4996785;28;20037;-66
2023/12/10 07:57:44;;;;;;;11.55;2.00;;;7.60;89.70;;;;;;4997444;28;20061;-66
2023/12/10 08:00:10;;;;;;;11.85;2.40;;;7.60;89.60;;;;;;4995968;28;20038;-67
2023/12/10 08:02:36;;;;;;;13.80;2.08;;;7.60;89.50;;;;;;4998253;28;20059;-66
2023/12/10 08:05:01;;;;;;;11.52;2.40;;;7.70;89.50;;;;;;5003102;28;20029;-66
2023/12/10 08:07:27;;;;;;;16.20;2.50;;;7.70;89.40;;;;;;5001546;28;20026;-67
2023/12/10 08:09:52;;;;;;;13.75;2.60;;;7.70;89.40;;;;;;4998754;28;20129;-66
2023/12/10 08:12:18;;;;;;;11.70;2.08;;;7.70;90.10;;;;;;4999673;28;20034;-67
2023/12/10 08:14:44;;;;;;;11.65;1.73;;;7.70;89.30;;;;;;5000628;28;20033;-66
2023/12/10 08:17:10;;;;;;;11.02;2.45;;;7.70;89.30;;;;;;5001909;28;20042;-66
2023/12/10 08:19:37;;;;;;;15.60;1.92;;;7.70;89.30;;;;;;5000924;28;20115;-66
2023/12/10 08:22:03;;;;;;;12.90;2.08;;;7.80;89.50;;;;;;4997166;28;20034;-66
2023/12/10 08:24:32;;;;;;;14.77;2.30;;;7.70;89.30;;;;;;5001889;28;20386;-66
2023/12/10 08:26:58;;;;;;;12.15;2.47;;;7.80;89.50;;;;;;5002037;28;20101;-66
2023/12/10 08:29:24;;;;;;;11.70;2.22;;;7.80;89.30;;;;;;5001435;28;20035;-67
2023/12/10 08:31:50;;;;;;;11.80;1.70;;;7.80;89.30;;;;;;5001571;28;20077;-67
2023/12/10 08:34:15;;;;;;;12.13;1.75;;;7.80;89.10;;;;;;5002255;28;20037;-66
2023/12/10 08:36:42;;;;;;;8.88;1.92;;;7.90;89.00;;;;;;5001091;28;20030;-66
2023/12/10 08:39:08;;;;;;;10.93;1.83;;;7.90;88.90;;;;;;5001635;28;20042;-68
2023/12/10 08:41:34;;;;;;;15.65;2.47;;;7.90;88.80;;;;;;5002148;28;22301;-67
2023/12/10 08:44:00;;;;;;;13.73;2.15;;;7.90;88.60;;;;;;5001823;28;20044;-67
2023/12/10 08:46:28;;;;;;;11.00;2.30;;;8.00;88.50;;;;;;4999384;28;20542;-66
2023/12/10 08:48:55;;;;;;;9.25;1.65;;;8.00;88.30;;;;;;4997744;28;20130;-66
2023/12/10 08:51:21;;;;;;;13.75;1.60;;;8.00;88.50;;;;;;4995069;28;20069;-67
2023/12/10 08:53:46;;;;;;;10.15;1.90;;;8.00;88.30;;;;;;5001352;28;20361;-66
2023/12/10 08:56:12;;;;;;;10.25;1.90;;;8.10;88.20;;;;;;5001380;28;20212;-66
2023/12/10 08:58:38;;;;;;;12.55;2.17;;;8.10;88.10;;;;;;5001426;28;20034;-67
2023/12/10 09:01:05;;;;;;;11.05;1.80;;;8.10;88.00;;;;;;5003132;28;20517;-65
2023/12/10 09:03:31;;;;;;;8.38;1.67;;;8.10;87.60;;;;;;5000783;28;20402;-67
2023/12/10 09:05:58;;;;;;;8.80;1.80;;;8.10;87.50;;;;;;5003460;28;20037;-65
2023/12/10 09:08:26;;;;;;;11.43;2.40;;;8.20;87.50;;;;;;5001317;28;20395;-66
2023/12/10 09:10:52;;;;;;;10.95;2.03;;;8.20;87.40;;;;;;4996825;28;20116;-66
2023/12/10 09:13:18;;;;;;;9.80;1.98;;;8.20;87.30;;;;;;5001233;28;20049;-66
2023/12/10 09:15:44;;;;;;;10.93;2.15;;;8.20;88.10;;;;;;5001691;28;20034;-66
2023/12/10 09:18:10;;;;;;;8.95;1.92;;;8.20;87.10;;;;;;5000573;28;20040;-67
2023/12/10 09:20:36;;;;;;;11.50;2.13;;;8.20;87.30;;;;;;4994964;28;20065;-66
2023/12/10 09:23:01;;;;;;;12.20;2.05;;;8.20;87.40;;;;;;5000916;28;20080;-66
2023/12/10 09:25:27;;;;;;;10.05;1.98;;;8.30;87.60;;;;;;5000425;28;20030;-66
2023/12/10 09:27:53;;;;;;;9.98;1.70;;;8.30;87.80;;;;;;4999783;28;20518;-66
2023/12/10 09:30:21;;;;;;;14.85;2.15;;;8.30;87.90;;;;;;4998254;28;20034;-66
2023/12/10 09:32:47;;;;;;;13.15;2.08;;;8.40;88.10;;;;;;4998512;28;20034;-67
2023/12/10 09:35:13;;;;;;;15.18;3.78;;;8.40;88.20;;;;;;5000165;28;20040;-67
2023/12/10 09:37:38;;;;;;;13.18;4.40;;;8.40;88.00;;;;;;5000582;28;20057;-67
2023/12/10 09:40:05;;;;;;;11.48;3.00;;;8.50;88.10;;;;;;5000000;28;20031;-66
2023/12/10 09:42:30;;;;;;;18.17;2.55;;;8.50;88.30;;;;;;4997290;28;20034;-65
2023/12/10 09:44:56;;;;;;;9.45;2.13;;;8.60;88.60;;;;;;4999494;28;20497;-67
2023/12/10 09:47:24;;;;;;;9.30;1.77;;;8.70;88.60;;;;;;4998393;28;20042;-66
2023/12/10 09:49:55;;;;;;;8.63;2.00;;;8.70;88.30;;;;;;4999255;28;20041;-66
2023/12/10 09:52:21;;;;;;;9.60;2.35;;;8.80;88.10;;;;;;4995442;28;20480;-66
2023/12/10 09:54:48;;;;;;;12.40;1.70;;;8.90;88.10;;;;;;4997018;28;20109;-66
2023/12/10 09:57:13;;;;;;;9.80;1.88;;;9.00;87.90;;;;;;4997044;28;20097;-67
2023/12/10 09:59:39;;;;;;;9.20;2.15;;;9.10;86.90;;;;;;4995012;28;20082;-66
2023/12/10 10:02:06;;;;;;;9.55;1.52;;;9.20;87.20;;;;;;4994053;28;20524;-66
2023/12/10 10:04:32;;;;;;;7.20;1.35;;;9.20;86.90;;;;;;4998380;28;20057;-66
2023/12/10 10:06:58;;;;;;;6.95;1.55;;;9.30;86.80;;;;;;5000810;28;20034;-66
2023/12/10 10:09:23;;;;;;;9.70;1.60;;;9.40;86.40;;;;;;4993092;28;20042;-66
2023/12/10 10:11:50;;;;;;;10.45;1.92;;;9.40;86.10;;;;;;5010040;28;20425;-65
2023/12/10 10:14:17;;;;;;;11.07;2.10;;;9.40;85.70;;;;;;5000061;28;20034;-66
2023/12/10 10:16:48;;;;;;;6.45;1.63;;;9.50;85.50;;;;;;5000105;28;20034;-66
2023/12/10 10:19:14;;;;;;;7.78;1.42;;;9.60;85.00;;;;;;4999869;28;20033;-66
2023/12/10 10:21:42;;;;;;;11.05;1.80;;;9.50;84.50;;;;;;4999822;28;20026;-66
2023/12/10 10:24:08;;;;;;;10.18;1.60;;;9.50;84.30;;;;;;4999585;28;20042;-66
2023/12/10 10:26:34;;;;;;;7.75;1.25;;;9.60;84.50;;;;;;5001129;28;20088;-66
2023/12/10 10:29:06;;;;;;;6.13;1.75;;;9.50;84.10;;;;;;5000277;28;20037;-66
2023/12/10 10:31:35;;;;;;;10.57;1.80;;;9.50;84.10;;;;;;4999128;28;20026;-66
2023/12/10 10:34:05;;;;;;;9.38;1.90;;;9.50;84.10;;;;;;4995318;28;20121;-65
2023/12/10 10:36:32;;;;;;;8.50;1.67;;;9.50;84.00;;;;;;4999602;28;20038;-65
2023/12/10 10:39:00;;;;;;;12.82;2.40;;;9.50;85.20;;;;;;4996429;28;20460;-66
2023/12/10 10:41:26;;;;;;;8.25;1.67;;;9.50;84.10;;;;;;4997209;28;20038;-66
2023/12/10 10:43:52;;;;;;;7.43;1.55;;;9.50;84.50;;;;;;5006949;28;20049;-66
2023/12/10 10:46:19;;;;;;;9.95;1.83;;;9.50;84.40;;;;;;4996016;28;20050;-66
2023/12/10 10:48:51;;;;;;;10.15;2.00;;;9.50;84.50;;;;;;4999232;28;20042;-66
2023/12/10 10:51:22;;;;;;;10.85;1.95;;;9.50;84.60;;;;;;5000302;28;20034;-65
2023/12/10 10:53:48;;;;;;;6.25;1.23;;;9.60;84.60;;;;;;5000768;28;20037;-66
2023/12/10 10:56:15;;;;;;;10.52;1.67;;;9.60;84.60;;;;;;4999770;28;20034;-67
2023/12/10 10:58:41;;;;;;;11.32;1.77;;;9.70;84.80;;;;;;4999138;28;20049;-66
2023/12/10 11:01:40;;;;;;;9.90;1.70;;;9.70;84.80;;;;;;4998568;28;20034;-66
2023/12/10 11:04:07;;;;;;;9.40;1.77;;;9.70;83.40;;;;;;4998878;28;20035;-66
2023/12/10 11:06:36;;;;;;;8.05;1.67;;;9.80;84.60;;;;;;4999705;28;20057;-66
2023/12/10 11:09:01;;;;;;;8.32;1.20;;;9.80;83.60;;;;;;4997157;28;20416;-66
2023/12/10 11:11:27;;;;;;;7.63;1.73;;;9.90;83.90;;;;;;4993102;28;20030;-66
2023/12/10 11:13:54;;;;;;;10.23;1.52;;;9.90;83.90;;;;;;4992124;28;20525;-65
2023/12/10 11:16:21;;;;;;;6.88;1.55;;;9.90;83.70;;;;;;4996716;28;20042;-66
2023/12/10 11:18:56;;;;;;;6.13;1.23;;;10.00;83.60;;;;;;4996742;28;20041;-66
2023/12/10 11:21:22;;;;;;;5.93;1.17;;;10.00;83.20;;;;;;4997167;28;20042;-66
2023/12/10 11:23:48;;;;;;;6.40;1.30;;;10.00;83.50;;;;;;4998680;28;20406;-66
2023/12/10 11:26:14;;;;;;;6.03;1.15;;;10.10;83.10;;;;;;5013744;28;20039;-66
2023/12/10 11:28:41;;;;;;;8.70;1.80;;;10.10;82.90;;;;;;4998936;28;20481;-66
2023/12/10 11:31:07;;;;;;;10.35;1.42;;;10.10;82.60;;;;;;4998648;28;20041;-66
2023/12/10 11:33:38;;;;;;;7.47;1.40;;;10.10;82.60;;;;;;4996487;28;20041;-66
2023/12/10 11:36:04;;;;;;;8.15;1.40;;;10.10;82.20;;;;;;4993301;28;20042;-65
2023/12/10 11:38:30;;;;;;;5.90;1.00;;;10.10;82.20;;;;;;4994500;28;20038;-66
2023/12/10 11:40:56;;;;;;;5.25;0.88;;;10.00;82.40;;;;;;5003285;28;20042;-66
2023/12/10 11:43:21;;;;;;;5.70;1.08;;;10.00;82.40;;;;;;5002055;28;20026;-66
2023/12/10 11:45:47;;;;;;;4.13;1.10;;;10.00;82.80;;;;;;5002642;28;20066;-66
2023/12/10 11:48:13;;;;;;;5.97;1.00;;;10.00;82.20;;;;;;4998862;28;20508;-66
2023/12/10 11:50:38;;;;;;;4.70;1.20;;;10.10;82.70;;;;;;5002178;28;20652;-66
2023/12/10 11:53:05;;;;;;;6.53;0.98;;;10.10;82.40;;;;;;5002721;28;20041;-66
2023/12/10 11:55:32;;;;;;;5.20;0.90;;;10.10;82.20;;;;;;5003552;28;20041;-66
2023/12/10 11:57:58;;;;;;;5.20;1.02;;;10.10;81.90;;;;;;5002640;28;20390;-66
2023/12/10 12:00:25;;;;;;;5.72;1.17;;;10.10;82.10;;;;;;4998812;28;20598;-66
2023/12/10 12:02:55;;;;;;;8.45;1.50;;;10.10;81.70;;;;;;4998766;28;20502;-66
2023/12/10 12:05:21;;;;;;;5.85;1.40;;;10.10;81.50;;;;;;5001392;28;20088;-66
2023/12/10 12:07:50;;;;;;;5.63;1.20;;;10.20;81.90;;;;;;4998231;28;20029;-66
2023/12/10 12:10:19;;;;;;;8.48;1.15;;;10.10;82.00;;;;;;4995409;28;20034;-66
2023/12/10 12:12:47;;;;;;;7.25;1.05;;;10.10;82.00;;;;;;5001807;28;20042;-66
2023/12/10 12:15:15;;;;;;;7.63;1.67;;;10.20;82.10;;;;;;4999830;28;20270;-66
2023/12/10 12:17:41;;;;;;;7.80;1.30;;;10.20;82.10;;;;;;4999739;28;20045;-66
2023/12/10 12:20:25;;;;;;;4.55;0.93;;;10.20;83.00;;;;;;5000914;28;20062;-66
2023/12/10 12:22:51;;;;;;;4.20;1.08;;;10.20;81.80;;;;;;4999933;28;20038;-66
2023/12/10 12:25:17;;;;;;;6.20;1.00;;;10.20;82.00;;;;;;5001492;28;20046;-66
2023/12/10 12:27:43;;;;;;;7.30;1.60;;;10.20;82.00;;;;;;5002091;28;20643;-66
2023/12/10 12:30:09;;;;;;;4.25;1.02;;;10.20;81.90;;;;;;4996542;28;20203;-66
2023/12/10 12:32:35;;;;;;;7.35;1.10;;;10.20;82.20;;;;;;4995380;28;20037;-66
2023/12/10 12:35:05;;;;;;;5.80;1.45;;;10.20;82.10;;;;;;4998929;28;20038;-66
2023/12/10 12:37:30;;;;;;;8.35;1.48;;;10.20;82.00;;;;;;4998316;28;20108;-66
2023/12/10 12:39:56;;;;;;;7.32;1.27;;;10.20;81.90;;;;;;5000696;28;20502;-66
2023/12/10 12:42:23;;;;;;;7.30;1.00;;;10.20;82.20;;;;;;5001232;28;20405;-66
2023/12/10 12:44:49;;;;;;;9.82;1.80;;;10.20;82.00;;;;;;5001739;28;20050;-66